Terminal Aerodrome Forecast
Issued by NWS

Home | Current Version | Previous Version | Graphics & Text | Print | Product List | Glossary On
Versions: 1 2 3 4 5 6 7 8 9 10 11 12 13 14 15 16 17 18 19 20 21 22 23 24 25 26 27 28 29 30 31 32 33 34 35 36 37 38 39 40 41 42 43 44 45 46 47 48 49 50
719
FTUS43 KLOT 211537 AAB
TAFGYY
TAF AMD
KGYY 211537Z 2116/2212 15005KT 3/4SM BR OVC003
      TEMPO 2116/2120 1/4SM -DZ FG OVC001
     FM212000 13004KT 1SM -DZ BR OVC003
      TEMPO 2120/2124 1/4SM DZ FG OVC001
     FM220000 15007KT 3/4SM -DZ BR OVC003
      TEMPO 2200/2204 1/4SM DZ FG OVC001=

USA.gov is the U.S. government's official web portal to all federal, state and local government web resources and services.